Cedar Springs, Georgia
Current Conditions -  °F | °C
As of 6:55 AM on Monday 24 Nov 2014 (Local Time) from KBIJ Reporting Station
Haze Haze  
Wind Chill: 64°   Ceiling: 500
Heat Index: 64°   Visibility: 1.7mi
Dew Point: 64°   Wind: 0mph
Humidity: 100%   Direction: NA
Pressure: 29.81"   Gusts: NA
Location:  31.18°N, 85.04°W
Report Text: KBIJ 241155Z AUTO 00000KT 1 3/4SM BR BKN005 OVC055 18/18 A2981 RMK AO2
Loading
Personal Weather Stations






























Interactive Weather Map New forecast layout! Learn more

10-Day Weather Forecast

Advertisements
Track Severe Weather on mobile